Time;durP1;ratioP1;P1;durP2;ratioP2;P2;SDS_P1;SDS_P2;PMS_P1;PMS_P2;Temp;Humidity;BMP_temperature;BMP_pressure;BME280_temperature;BME280_humidity;BME280_pressure;Samples;Min_cycle;Max_cycle;Signal;HPM_P1;HPM_P2
2021/12/07 00:01:50;;;;;;;6.18;4.80;;;3.90;91.00;;;;;;5096682;28;20031;-83
2021/12/07 00:04:16;;;;;;;6.10;4.80;;;3.90;90.70;;;;;;5096844;28;20028;-83
2021/12/07 00:06:42;;;;;;;6.20;4.80;;;4.00;90.60;;;;;;5097092;28;20054;-83
2021/12/07 00:09:11;;;;;;;7.75;5.60;;;4.00;90.60;;;;;;5097425;28;20067;-83
2021/12/07 00:11:37;;;;;;;6.57;5.13;;;4.00;90.50;;;;;;5097975;28;20127;-83
2021/12/07 00:14:11;;;;;;;6.03;4.75;;;4.00;90.50;;;;;;5097378;28;20024;-83
2021/12/07 00:16:37;;;;;;;6.50;5.35;;;4.00;90.50;;;;;;5096475;28;20044;-82
2021/12/07 00:19:04;;;;;;;6.10;4.97;;;4.10;90.40;;;;;;5098033;28;20043;-84
2021/12/07 00:21:30;;;;;;;6.32;4.57;;;4.10;90.40;;;;;;5096814;28;20101;-83
2021/12/07 00:23:56;;;;;;;6.68;5.03;;;4.10;90.40;;;;;;5095471;28;20027;-82
2021/12/07 00:26:22;;;;;;;5.93;4.93;;;4.10;90.40;;;;;;5096359;28;20028;-83
2021/12/07 00:28:50;;;;;;;6.80;4.70;;;4.10;90.30;;;;;;5095501;28;20040;-83
2021/12/07 00:31:28;;;;;;;5.45;4.53;;;4.10;90.20;;;;;;5095980;28;20027;-83
2021/12/07 00:36:31;;;;;;;4.88;4.10;;;4.10;90.20;;;;;;5097079;28;20032;-83
2021/12/07 00:38:57;;;;;;;5.82;4.22;;;4.10;90.10;;;;;;5096057;28;20053;-83
2021/12/07 00:41:23;;;;;;;3.90;3.45;;;4.10;90.00;;;;;;5096385;28;20115;-84
2021/12/07 00:43:49;;;;;;;4.63;3.55;;;4.10;90.00;;;;;;5095020;28;20548;-83
2021/12/07 00:46:15;;;;;;;3.95;3.33;;;4.00;90.00;;;;;;5095956;28;20024;-83
2021/12/07 00:48:40;;;;;;;4.65;3.40;;;4.10;90.10;;;;;;5096001;28;20032;-83
2021/12/07 00:51:07;;;;;;;7.40;4.95;;;4.10;90.10;;;;;;5096660;28;20028;-83
2021/12/07 00:53:32;;;;;;;5.53;3.88;;;4.10;90.00;;;;;;5097219;28;20111;-83
2021/12/07 00:56:01;;;;;;;4.97;3.58;;;4.00;89.70;;;;;;5096919;28;20063;-82
2021/12/07 00:58:28;;;;;;;5.28;3.97;;;3.90;89.60;;;;;;5098580;28;20046;-83
2021/12/07 01:01:06;;;;;;;5.38;4.53;;;3.90;89.80;;;;;;5100868;28;20028;-83
2021/12/07 01:03:33;;;;;;;5.63;4.63;;;4.00;89.90;;;;;;5101059;28;20115;-82
2021/12/07 01:09:34;;;;;;;5.07;4.07;;;3.90;89.80;;;;;;5105108;28;20058;-83
2021/12/07 01:25:56;;;;;;;5.50;4.35;;;3.80;89.30;;;;;;5097913;28;20043;-83
2021/12/07 01:28:30;;;;;;;4.90;4.35;;;3.80;89.50;;;;;;5096461;28;20032;-83
2021/12/07 01:31:05;;;;;;;6.15;5.18;;;3.80;89.60;;;;;;5101747;28;20047;-83
2021/12/07 01:59:37;;;;;;;6.55;5.00;;;3.70;89.00;;;;;;5099203;28;20055;-83
2021/12/07 02:05:25;;;;;;;7.93;5.78;;;3.80;89.10;;;;;;5099914;28;20115;-83
2021/12/07 02:07:51;;;;;;;8.00;6.18;;;3.70;89.10;;;;;;5097787;28;20052;-82
2021/12/07 02:10:22;;;;;;;7.78;6.65;;;3.80;89.30;;;;;;5097883;28;20028;-82
2021/12/07 02:12:50;;;;;;;8.32;6.60;;;3.80;89.20;;;;;;5098301;28;20020;-82
2021/12/07 02:15:24;;;;;;;7.95;6.60;;;3.80;89.20;;;;;;5097738;28;20518;-82
2021/12/07 02:17:51;;;;;;;8.98;6.25;;;3.80;89.20;;;;;;5098167;28;20047;-83
2021/12/07 02:20:18;;;;;;;8.45;7.00;;;3.80;89.20;;;;;;5097694;28;20111;-82
2021/12/07 02:22:45;;;;;;;8.63;6.75;;;3.80;89.10;;;;;;5097816;28;20024;-82
2021/12/07 02:25:13;;;;;;;9.82;7.40;;;3.80;89.00;;;;;;5097987;28;20066;-82
2021/12/07 02:27:39;;;;;;;10.48;7.40;;;3.80;89.00;;;;;;5097850;28;20096;-82
2021/12/07 02:30:09;;;;;;;9.88;7.57;;;3.70;89.00;;;;;;5097868;28;20118;-82
2021/12/07 02:32:36;;;;;;;9.05;7.30;;;3.80;89.20;;;;;;5097533;28;20023;-82
2021/12/07 02:35:01;;;;;;;12.05;7.45;;;3.80;89.30;;;;;;5097232;28;20031;-82
2021/12/07 02:37:32;;;;;;;9.68;7.40;;;3.70;89.10;;;;;;5096916;28;20463;-81
2021/12/07 02:39:59;;;;;;;9.40;7.38;;;3.70;89.10;;;;;;5097666;28;20028;-82
2021/12/07 02:42:26;;;;;;;9.40;7.18;;;3.70;89.30;;;;;;5097229;28;20131;-82
2021/12/07 02:44:52;;;;;;;9.93;7.30;;;3.70;89.30;;;;;;5097606;28;20035;-82
2021/12/07 02:47:18;;;;;;;9.25;7.53;;;3.70;89.30;;;;;;5097355;28;20024;-83
2021/12/07 02:49:44;;;;;;;9.63;8.02;;;3.60;89.20;;;;;;5097282;28;20067;-83
2021/12/07 02:52:12;;;;;;;10.43;7.88;;;3.60;89.30;;;;;;5097118;28;20024;-83
2021/12/07 02:54:44;;;;;;;9.95;8.20;;;3.60;89.50;;;;;;5098152;28;20028;-83
2021/12/07 02:57:11;;;;;;;11.02;8.57;;;3.60;89.60;;;;;;5096876;28;20032;-83
2021/12/07 02:59:42;;;;;;;11.13;8.43;;;3.60;89.70;;;;;;5096299;28;20040;-80
2021/12/07 03:02:10;;;;;;;12.23;8.20;;;3.60;89.70;;;;;;5097043;28;20030;-82
2021/12/07 03:04:42;;;;;;;10.77;8.52;;;3.60;89.60;;;;;;5096154;28;20177;-82
2021/12/07 03:07:23;;;;;;;10.15;8.07;;;3.60;89.70;;;;;;5096504;28;20051;-82
2021/12/07 03:26:22;;;;;;;10.75;8.25;;;3.60;90.00;;;;;;5097596;28;20476;-82
2021/12/07 03:28:51;;;;;;;10.85;8.32;;;3.60;90.00;;;;;;5097634;28;20039;-83
2021/12/07 03:31:19;;;;;;;11.18;8.38;;;3.60;89.90;;;;;;5096852;28;20020;-83
2021/12/07 03:33:45;;;;;;;10.00;7.63;;;3.60;90.00;;;;;;5096493;28;20008;-82
2021/12/07 03:36:12;;;;;;;9.75;7.80;;;3.60;89.90;;;;;;5096303;28;20115;-83
2021/12/07 03:38:39;;;;;;;12.18;8.63;;;3.60;89.90;;;;;;5096705;28;20034;-82
2021/12/07 03:41:05;;;;;;;10.32;8.00;;;3.60;90.00;;;;;;5095839;28;20028;-83
2021/12/07 03:43:32;;;;;;;10.88;8.57;;;3.60;90.00;;;;;;5095848;28;20032;-82
2021/12/07 03:45:58;;;;;;;10.93;8.73;;;3.60;90.00;;;;;;5095892;28;20440;-83
2021/12/07 03:48:23;;;;;;;12.05;8.30;;;3.60;90.10;;;;;;5096347;28;20487;-83
2021/12/07 03:50:49;;;;;;;11.48;8.43;;;3.50;90.00;;;;;;5096071;28;20119;-82
2021/12/07 03:53:16;;;;;;;11.00;8.38;;;3.50;90.00;;;;;;5097348;28;20031;-83
2021/12/07 03:55:42;;;;;;;11.50;8.07;;;3.50;90.00;;;;;;5096979;28;20028;-83
2021/12/07 03:58:08;;;;;;;10.63;8.35;;;3.50;90.10;;;;;;5095764;28;20062;-83
2021/12/07 04:00:37;;;;;;;12.13;9.02;;;3.50;90.10;;;;;;5097119;28;20024;-82
2021/12/07 04:03:07;;;;;;;11.40;7.90;;;3.50;90.10;;;;;;5097193;28;20441;-83
2021/12/07 04:05:36;;;;;;;11.27;8.27;;;3.60;90.10;;;;;;5095829;28;20051;-83
2021/12/07 04:08:04;;;;;;;10.30;7.05;;;3.50;90.10;;;;;;5094955;28;20024;-83
2021/12/07 04:10:30;;;;;;;13.00;8.73;;;3.60;90.10;;;;;;5095667;28;20020;-82
2021/12/07 04:12:56;;;;;;;12.60;8.18;;;3.60;90.10;;;;;;5095938;28;20024;-82
2021/12/07 04:15:24;;;;;;;12.57;7.88;;;3.60;90.10;;;;;;5096373;28;20036;-82
2021/12/07 04:17:50;;;;;;;12.85;7.65;;;3.60;90.10;;;;;;5095775;28;20038;-81
2021/12/07 04:20:17;;;;;;;10.90;7.53;;;3.60;90.10;;;;;;5096133;28;20115;-83
2021/12/07 04:22:43;;;;;;;11.82;7.18;;;3.60;90.10;;;;;;5094789;28;20032;-82
2021/12/07 04:25:10;;;;;;;11.27;7.22;;;3.70;90.10;;;;;;5094949;28;20126;-82
2021/12/07 04:27:39;;;;;;;10.48;7.38;;;3.80;90.10;;;;;;5094983;28;20028;-82
2021/12/07 04:30:15;;;;;;;10.07;7.07;;;3.80;90.00;;;;;;5095815;28;20024;-82
2021/12/07 04:32:41;;;;;;;10.30;6.93;;;3.90;90.00;;;;;;5095228;28;20035;-82
2021/12/07 04:35:09;;;;;;;9.43;6.50;;;3.90;90.00;;;;;;5095288;28;20020;-82
2021/12/07 04:37:34;;;;;;;13.38;7.88;;;3.90;90.00;;;;;;5095300;28;20062;-82
2021/12/07 04:40:00;;;;;;;10.60;6.53;;;3.90;89.90;;;;;;5095389;28;20020;-82
2021/12/07 04:42:26;;;;;;;8.23;5.82;;;3.90;90.00;;;;;;5096106;28;20087;-81
2021/12/07 04:44:57;;;;;;;8.77;6.18;;;4.00;90.00;;;;;;5094750;28;20515;-82
2021/12/07 04:47:37;;;;;;;12.35;6.05;;;4.00;89.90;;;;;;5094408;28;20020;-82
2021/12/07 04:50:42;;;;;;;9.05;5.63;;;3.90;89.90;;;;;;5094037;28;20473;-82
2021/12/07 04:58:19;;;;;;;10.85;5.25;;;3.90;89.90;;;;;;5095861;28;20079;-82
2021/12/07 05:00:45;;;;;;;9.75;4.82;;;3.90;90.00;;;;;;5095755;28;20016;-82
2021/12/07 05:03:11;;;;;;;10.30;4.65;;;3.90;90.00;;;;;;5095445;28;20058;-82
2021/12/07 05:05:43;;;;;;;8.23;4.40;;;3.80;90.00;;;;;;5093641;28;20499;-81
2021/12/07 05:08:12;;;;;;;9.00;4.50;;;3.80;90.00;;;;;;5095338;28;20024;-82
2021/12/07 05:39:41;;;;;;;5.00;3.15;;;3.90;90.10;;;;;;5096817;28;20391;-82
2021/12/07 05:42:06;;;;;;;9.07;3.95;;;3.90;90.10;;;;;;5096235;28;20028;-82
2021/12/07 05:44:32;;;;;;;8.10;3.28;;;3.80;90.10;;;;;;5096755;28;20031;-81
2021/12/07 05:46:58;;;;;;;8.88;3.35;;;3.80;90.10;;;;;;5095061;28;20119;-82
2021/12/07 05:49:23;;;;;;;10.68;3.78;;;3.80;90.20;;;;;;5096525;28;20040;-82
2021/12/07 05:51:49;;;;;;;7.15;3.40;;;3.80;90.20;;;;;;5095369;28;20085;-82
2021/12/07 05:54:15;;;;;;;9.07;3.30;;;3.80;90.20;;;;;;5094856;28;20031;-82
2021/12/07 05:56:40;;;;;;;9.05;3.72;;;3.80;90.20;;;;;;5094914;28;20037;-83
2021/12/07 05:59:06;;;;;;;10.52;3.97;;;3.70;90.20;;;;;;5095438;28;20024;-82
2021/12/07 06:01:32;;;;;;;9.93;3.92;;;3.80;90.30;;;;;;5096487;28;20110;-82
2021/12/07 06:03:57;;;;;;;12.32;4.85;;;3.80;90.30;;;;;;5094785;28;20120;-82
2021/12/07 06:06:23;;;;;;;8.75;4.10;;;3.80;90.30;;;;;;5095468;28;20024;-83
2021/12/07 06:08:48;;;;;;;12.48;4.97;;;3.80;90.30;;;;;;5091796;28;20059;-82
2021/12/07 06:11:14;;;;;;;15.02;5.32;;;3.90;90.30;;;;;;5094447;28;20042;-82
2021/12/07 06:13:40;;;;;;;13.77;5.35;;;3.90;90.20;;;;;;5095838;28;20028;-83
2021/12/07 06:16:07;;;;;;;16.88;5.82;;;4.00;90.20;;;;;;5093758;28;20070;-82
2021/12/07 06:18:35;;;;;;;16.55;5.90;;;3.90;90.10;;;;;;5095023;28;20020;-82
2021/12/07 06:21:01;;;;;;;11.10;4.90;;;4.00;90.20;;;;;;5095714;28;20024;-82
2021/12/07 06:23:27;;;;;;;11.38;4.75;;;4.00;90.20;;;;;;5099365;28;20114;-82
2021/12/07 06:25:54;;;;;;;11.65;4.90;;;3.90;90.10;;;;;;5097682;28;20083;-82
2021/12/07 06:28:20;;;;;;;12.68;5.20;;;4.00;90.20;;;;;;5097400;28;20032;-82
2021/12/07 06:30:47;;;;;;;11.02;4.93;;;4.00;90.20;;;;;;5097608;28;20114;-81
2021/12/07 06:33:15;;;;;;;12.77;5.13;;;4.10;90.20;;;;;;5098254;28;20476;-82
2021/12/07 06:35:41;;;;;;;12.80;5.07;;;4.10;90.20;;;;;;5097958;28;20020;-82
2021/12/07 06:38:07;;;;;;;11.10;5.00;;;4.10;90.10;;;;;;5097737;28;20514;-81
2021/12/07 06:40:33;;;;;;;11.85;5.03;;;4.10;90.10;;;;;;5098795;28;20032;-82
2021/12/07 06:43:00;;;;;;;12.32;5.30;;;4.10;90.10;;;;;;5098566;28;20078;-80
2021/12/07 06:45:27;;;;;;;11.02;4.72;;;4.10;90.10;;;;;;5096465;28;20035;-81
2021/12/07 06:47:54;;;;;;;16.95;4.93;;;4.10;90.10;;;;;;5097590;28;20047;-82
2021/12/07 06:50:20;;;;;;;8.85;3.80;;;4.10;90.00;;;;;;5097850;28;20093;-80
2021/12/07 06:52:46;;;;;;;9.80;3.78;;;4.10;90.10;;;;;;5098249;28;20111;-82
2021/12/07 06:55:12;;;;;;;10.57;4.20;;;4.10;90.00;;;;;;5096900;28;20020;-81
2021/12/07 06:57:38;;;;;;;8.65;3.35;;;4.00;90.10;;;;;;5096844;28;20020;-81
2021/12/07 07:00:06;;;;;;;8.95;3.70;;;4.00;90.10;;;;;;5098194;28;20104;-82
2021/12/07 07:02:32;;;;;;;12.07;4.07;;;4.00;90.20;;;;;;5096583;28;20073;-82
2021/12/07 07:04:57;;;;;;;9.57;3.95;;;3.90;90.20;;;;;;5096893;28;20418;-82
2021/12/07 07:07:24;;;;;;;12.77;3.60;;;3.90;90.20;;;;;;5096501;28;20017;-82
2021/12/07 07:09:51;;;;;;;9.25;3.47;;;3.80;90.20;;;;;;5096338;28;20035;-82
2021/12/07 07:12:17;;;;;;;13.43;3.88;;;3.80;90.30;;;;;;5097894;28;20422;-82
2021/12/07 07:14:43;;;;;;;14.00;3.65;;;3.80;90.30;;;;;;5096556;28;20475;-83
2021/12/07 07:17:09;;;;;;;12.82;3.60;;;3.80;90.30;;;;;;5093748;28;20036;-82
2021/12/07 07:19:34;;;;;;;11.20;3.58;;;3.80;90.30;;;;;;5096889;28;20050;-82
2021/12/07 07:22:02;;;;;;;8.18;3.53;;;3.70;90.30;;;;;;5096122;28;20028;-82
2021/12/07 07:24:29;;;;;;;12.63;3.92;;;3.70;90.40;;;;;;5096067;28;20544;-84
2021/12/07 07:26:57;;;;;;;9.65;3.17;;;3.70;90.40;;;;;;5096316;28;20024;-83
2021/12/07 07:29:23;;;;;;;14.13;3.85;;;3.70;90.40;;;;;;5095330;28;20027;-82
2021/12/07 07:31:48;;;;;;;11.07;3.35;;;3.70;90.40;;;;;;5095541;28;20069;-82
2021/12/07 07:34:14;;;;;;;7.15;3.15;;;3.80;90.40;;;;;;5092045;28;20484;-82
2021/12/07 07:36:40;;;;;;;13.32;3.30;;;3.80;90.40;;;;;;5095672;28;20020;-82
2021/12/07 07:39:05;;;;;;;8.15;3.42;;;3.80;90.40;;;;;;5096835;28;20028;-82
2021/12/07 07:41:31;;;;;;;7.35;3.08;;;3.80;90.40;;;;;;5094534;28;20448;-81
2021/12/07 07:43:56;;;;;;;9.25;2.92;;;3.80;90.40;;;;;;5095449;28;20031;-81
2021/12/07 07:46:22;;;;;;;12.00;3.08;;;3.80;90.40;;;;;;5095096;28;20024;-82
2021/12/07 07:48:48;;;;;;;10.38;3.38;;;3.80;90.40;;;;;;5092054;28;20063;-82
2021/12/07 07:51:14;;;;;;;9.10;3.40;;;3.80;90.40;;;;;;5096545;28;20024;-82
2021/12/07 07:53:40;;;;;;;8.20;2.92;;;3.80;90.40;;;;;;5097267;28;20084;-82
2021/12/07 07:56:06;;;;;;;7.80;2.88;;;3.80;90.40;;;;;;5092694;28;20111;-81
2021/12/07 07:58:32;;;;;;;13.60;4.78;;;3.80;90.40;;;;;;5098090;28;20040;-81
2021/12/07 08:00:58;;;;;;;13.13;5.85;;;3.80;90.40;;;;;;5096536;28;20388;-82
2021/12/07 08:03:24;;;;;;;17.70;7.85;;;3.80;90.40;;;;;;5096787;28;20083;-81
2021/12/07 08:05:49;;;;;;;14.45;6.03;;;3.90;90.50;;;;;;5096523;28;20460;-82
2021/12/07 08:08:15;;;;;;;17.58;5.28;;;3.90;90.40;;;;;;5096752;28;20024;-81
2021/12/07 08:10:41;;;;;;;11.20;4.10;;;3.90;90.40;;;;;;5096637;28;20020;-82
2021/12/07 08:13:08;;;;;;;8.00;3.50;;;3.90;90.70;;;;;;5097679;28;20449;-82
2021/12/07 08:15:38;;;;;;;6.65;3.40;;;4.00;90.40;;;;;;5096931;28;20135;-82
2021/12/07 08:18:05;;;;;;;8.15;3.47;;;3.90;90.40;;;;;;5098505;28;20089;-82
2021/12/07 08:20:31;;;;;;;7.22;3.00;;;4.00;90.40;;;;;;5097751;28;20024;-81
2021/12/07 08:23:04;;;;;;;6.45;2.88;;;4.00;90.40;;;;;;5097086;28;20050;-85
2021/12/07 08:25:30;;;;;;;7.80;2.72;;;4.00;90.30;;;;;;5095279;28;20059;-83
2021/12/07 08:27:56;;;;;;;8.63;2.78;;;4.10;90.30;;;;;;5095379;28;20028;-82
2021/12/07 08:30:22;;;;;;;10.40;2.90;;;4.10;90.30;;;;;;5095039;28;20028;-83
2021/12/07 08:32:47;;;;;;;7.22;2.80;;;4.10;90.30;;;;;;5095140;28;20400;-82
2021/12/07 08:35:16;;;;;;;7.22;3.15;;;4.10;90.20;;;;;;5094447;28;20059;-83
2021/12/07 08:37:46;;;;;;;9.15;3.15;;;4.20;90.30;;;;;;5095425;28;20480;-82
2021/12/07 08:40:17;;;;;;;9.40;2.88;;;4.10;90.20;;;;;;5094684;28;20020;-82
2021/12/07 08:42:43;;;;;;;9.82;3.40;;;4.10;90.20;;;;;;5095112;28;20410;-82
2021/12/07 08:45:09;;;;;;;9.38;3.10;;;4.10;90.20;;;;;;5093755;28;20027;-82
2021/12/07 08:47:35;;;;;;;6.97;3.10;;;4.20;90.20;;;;;;5094666;28;20038;-82
2021/12/07 08:50:05;;;;;;;11.43;2.90;;;4.20;90.20;;;;;;5094519;28;20024;-83
2021/12/07 08:52:31;;;;;;;10.60;3.20;;;4.10;90.20;;;;;;5095216;28;20020;-81
2021/12/07 09:00:45;;;;;;;10.30;3.00;;;4.20;90.20;;;;;;5104598;28;20119;-82
2021/12/07 09:03:11;;;;;;;7.25;3.13;;;4.20;90.20;;;;;;5094861;28;20023;-82
2021/12/07 09:05:38;;;;;;;7.88;3.03;;;4.30;90.20;;;;;;5095358;28;20395;-82
2021/12/07 09:08:04;;;;;;;9.90;4.00;;;4.30;90.20;;;;;;5091688;28;20029;-82
2021/12/07 09:10:29;;;;;;;8.15;3.45;;;4.30;90.20;;;;;;5095281;28;20024;-82
2021/12/07 09:12:55;;;;;;;14.35;5.00;;;4.30;90.20;;;;;;5095199;28;20476;-83
2021/12/07 09:15:21;;;;;;;13.05;4.20;;;4.30;90.10;;;;;;5094099;28;20479;-82
2021/12/07 09:17:46;;;;;;;8.35;3.55;;;4.40;90.10;;;;;;5095631;28;20521;-82
2021/12/07 09:20:15;;;;;;;10.80;4.18;;;4.40;90.10;;;;;;5095745;28;20414;-83
2021/12/07 09:22:43;;;;;;;13.73;4.68;;;4.40;90.10;;;;;;5094826;28;20020;-83
2021/12/07 09:25:09;;;;;;;12.45;4.22;;;4.40;90.00;;;;;;5096485;28;20013;-83
2021/12/07 09:27:35;;;;;;;15.23;4.70;;;4.40;90.10;;;;;;5094922;28;20487;-82
2021/12/07 09:30:01;;;;;;;11.70;4.97;;;4.40;90.10;;;;;;5094216;28;20065;-83
2021/12/07 09:32:27;;;;;;;10.57;4.07;;;4.30;90.10;;;;;;5093743;28;20480;-83
2021/12/07 09:34:53;;;;;;;11.10;5.13;;;4.40;90.10;;;;;;5095154;28;20051;-83
2021/12/07 09:37:19;;;;;;;10.88;4.97;;;4.40;90.10;;;;;;5094646;28;20043;-82
2021/12/07 09:39:45;;;;;;;11.10;4.50;;;4.40;90.10;;;;;;5093972;28;20024;-82
2021/12/07 09:42:10;;;;;;;11.48;4.72;;;4.50;90.10;;;;;;5093341;28;20127;-81
2021/12/07 09:44:36;;;;;;;13.73;5.20;;;4.60;90.10;;;;;;5094599;28;20017;-82
2021/12/07 09:47:02;;;;;;;12.85;5.45;;;4.60;90.00;;;;;;5093439;28;20480;-81
2021/12/07 09:49:27;;;;;;;12.15;4.70;;;4.60;90.00;;;;;;5094108;28;20024;-82
2021/12/07 09:51:53;;;;;;;14.38;4.85;;;4.70;90.00;;;;;;5094007;28;20111;-81
2021/12/07 09:54:18;;;;;;;13.80;4.80;;;4.70;90.00;;;;;;5093859;28;20020;-82
2021/12/07 09:56:44;;;;;;;13.70;5.00;;;4.70;89.90;;;;;;5095610;28;20032;-81
2021/12/07 09:59:11;;;;;;;13.38;5.82;;;4.80;89.90;;;;;;5099212;28;20078;-81
2021/12/07 10:01:40;;;;;;;13.63;4.90;;;4.80;89.80;;;;;;5099147;28;20027;-82
2021/12/07 10:04:06;;;;;;;12.05;5.18;;;4.90;89.80;;;;;;5101707;28;20028;-82
2021/12/07 10:06:31;;;;;;;13.43;4.85;;;5.00;89.60;;;;;;5101496;28;20063;-82
2021/12/07 10:08:57;;;;;;;15.05;4.72;;;5.00;89.60;;;;;;5098905;28;20495;-81
2021/12/07 10:11:23;;;;;;;15.70;4.82;;;5.00;89.50;;;;;;5101211;28;20024;-82
2021/12/07 10:13:51;;;;;;;15.98;4.78;;;5.10;89.50;;;;;;5099271;28;20544;-82
2021/12/07 10:16:18;;;;;;;20.67;4.70;;;5.10;89.40;;;;;;5100164;28;20044;-82
2021/12/07 10:18:43;;;;;;;10.73;4.40;;;5.20;89.30;;;;;;5098569;28;20020;-82
2021/12/07 10:21:14;;;;;;;11.68;4.55;;;5.20;89.20;;;;;;5097987;28;20063;-82
2021/12/07 10:23:48;;;;;;;11.20;4.25;;;5.30;89.20;;;;;;5099542;28;20034;-81
2021/12/07 10:26:17;;;;;;;12.70;4.78;;;5.30;89.20;;;;;;5097582;28;20118;-82
2021/12/07 10:28:59;;;;;;;14.63;4.72;;;5.30;89.10;;;;;;5096431;28;20032;-82
2021/12/07 10:31:31;;;;;;;14.35;4.35;;;5.30;89.10;;;;;;5097407;28;20116;-82
2021/12/07 10:33:59;;;;;;;13.60;4.32;;;5.30;89.00;;;;;;5097796;28;20023;-83
2021/12/07 10:36:33;;;;;;;13.52;4.45;;;5.30;89.00;;;;;;5095994;28;20021;-83
2021/12/07 10:39:04;;;;;;;11.65;3.88;;;5.30;89.00;;;;;;5096973;28;20091;-80
2021/12/07 10:41:36;;;;;;;10.95;4.53;;;5.30;89.00;;;;;;5099629;28;20036;-81
2021/12/07 10:44:12;;;;;;;10.43;4.60;;;5.30;88.90;;;;;;5099857;28;20051;-82
2021/12/07 10:46:52;;;;;;;16.88;5.13;;;5.30;89.10;;;;;;5101736;28;20125;-82
2021/12/07 10:49:38;;;;;;;11.32;4.00;;;5.30;89.00;;;;;;5100481;28;20024;-82
2021/12/07 10:55:26;;;;;;;9.20;3.85;;;5.40;89.10;;;;;;5098900;28;20447;-82
2021/12/07 10:58:00;;;;;;;11.73;4.00;;;5.40;88.90;;;;;;5097886;28;20016;-82
2021/12/07 11:00:30;;;;;;;12.85;4.20;;;5.40;88.90;;;;;;5099000;28;20020;-82
2021/12/07 11:03:10;;;;;;;10.63;3.45;;;5.40;88.80;;;;;;5098329;28;20016;-82
2021/12/07 11:05:39;;;;;;;12.85;4.38;;;5.50;88.90;;;;;;5097820;28;20054;-82
2021/12/07 11:08:06;;;;;;;9.55;3.70;;;5.50;88.80;;;;;;5096877;28;20012;-83
2021/12/07 11:10:34;;;;;;;12.80;3.72;;;5.60;88.80;;;;;;5097868;28;20021;-82
2021/12/07 11:13:15;;;;;;;12.27;3.80;;;5.60;88.70;;;;;;5097752;28;20020;-83
2021/12/07 11:15:53;;;;;;;10.07;3.70;;;5.70;88.70;;;;;;5095496;28;20051;-81
2021/12/07 11:18:32;;;;;;;14.65;3.40;;;5.70;88.60;;;;;;5096454;28;20111;-82
2021/12/07 11:21:06;;;;;;;8.80;3.28;;;5.80;88.60;;;;;;5096611;28;20024;-83
2021/12/07 11:23:54;;;;;;;8.35;3.42;;;5.80;88.50;;;;;;5097271;28;20020;-81
2021/12/07 11:31:54;;;;;;;8.23;2.88;;;6.00;88.30;;;;;;5097404;28;20032;-82
2021/12/07 11:34:23;;;;;;;9.00;2.92;;;6.10;88.30;;;;;;5097884;28;20021;-82
2021/12/07 11:36:55;;;;;;;8.88;3.42;;;6.20;88.20;;;;;;5095417;28;20177;-82
2021/12/07 11:39:29;;;;;;;7.60;3.00;;;6.30;88.00;;;;;;5096045;28;20038;-81
2021/12/07 11:42:10;;;;;;;8.85;3.00;;;6.30;88.00;;;;;;5098919;28;20540;-80
2021/12/07 11:44:54;;;;;;;8.95;3.00;;;6.40;87.90;;;;;;5097571;28;20117;-80
2021/12/07 11:47:31;;;;;;;11.43;4.63;;;6.40;87.80;;;;;;5098106;28;20028;-81
2021/12/07 11:50:01;;;;;;;10.95;3.63;;;6.40;87.70;;;;;;5095546;28;20128;-82
2021/12/07 11:52:27;;;;;;;10.07;3.92;;;6.40;87.60;;;;;;5095774;28;20031;-81
2021/12/07 11:54:54;;;;;;;9.23;3.60;;;6.50;87.60;;;;;;5095166;28;20464;-82
2021/12/07 11:57:21;;;;;;;7.22;3.60;;;6.50;87.50;;;;;;5095803;28;20032;-81
2021/12/07 11:59:49;;;;;;;6.80;3.00;;;6.50;87.40;;;;;;5095438;28;20028;-82
2021/12/07 12:02:22;;;;;;;9.10;3.10;;;6.60;87.50;;;;;;5095885;28;20050;-81
2021/12/07 12:04:48;;;;;;;10.38;3.33;;;6.60;87.30;;;;;;5096170;28;20499;-81
2021/12/07 12:07:15;;;;;;;11.10;3.10;;;6.60;87.30;;;;;;5095033;28;20020;-81
2021/12/07 12:09:47;;;;;;;10.13;3.25;;;6.60;87.30;;;;;;5095498;28;20085;-82
2021/12/07 12:12:21;;;;;;;6.35;3.00;;;6.60;87.10;;;;;;5094800;28;20044;-82
2021/12/07 12:14:58;;;;;;;10.07;3.50;;;6.60;87.20;;;;;;5094971;28;20021;-81
2021/12/07 12:17:24;;;;;;;7.45;3.60;;;6.60;87.20;;;;;;5094655;28;20495;-82
2021/12/07 12:20:30;;;;;;;8.10;2.72;;;6.60;87.10;;;;;;5096057;28;20016;-82
2021/12/07 12:23:17;;;;;;;7.18;2.78;;;6.70;87.20;;;;;;5095165;28;20024;-80
2021/12/07 12:25:43;;;;;;;8.27;3.17;;;6.60;87.10;;;;;;5095175;28;20443;-82
2021/12/07 12:28:08;;;;;;;8.57;2.78;;;6.70;87.10;;;;;;5095741;28;20028;-82
2021/12/07 12:30:39;;;;;;;8.77;3.00;;;6.70;87.10;;;;;;5094421;28;20020;-82
2021/12/07 12:33:08;;;;;;;10.77;3.22;;;6.70;87.10;;;;;;5095137;28;20044;-82
2021/12/07 12:35:42;;;;;;;7.78;3.08;;;6.80;87.00;;;;;;5095355;28;20021;-81
2021/12/07 12:38:34;;;;;;;6.70;2.90;;;6.80;86.90;;;;;;5095707;28;20072;-80
2021/12/07 12:41:06;;;;;;;8.85;3.13;;;6.80;86.80;;;;;;5091961;28;20487;-81
2021/12/07 12:43:42;;;;;;;6.93;2.90;;;6.80;86.80;;;;;;5094797;28;20043;-81
2021/12/07 12:46:17;;;;;;;6.68;2.50;;;6.80;86.70;;;;;;5093907;28;20033;-81
2021/12/07 12:48:50;;;;;;;7.18;2.55;;;6.80;86.70;;;;;;5094235;28;20057;-81
2021/12/07 12:51:17;;;;;;;6.05;2.35;;;6.80;86.50;;;;;;5094763;28;20197;-82
2021/12/07 12:53:45;;;;;;;9.75;2.75;;;6.80;86.50;;;;;;5096616;28;20028;-82
2021/12/07 12:56:16;;;;;;;7.68;2.88;;;6.80;86.50;;;;;;5094309;28;20027;-81
2021/12/07 12:58:45;;;;;;;9.00;2.72;;;6.80;86.20;;;;;;5094256;28;20039;-82
2021/12/07 13:01:21;;;;;;;8.30;2.60;;;6.80;86.20;;;;;;5094412;28;20101;-81
2021/12/07 13:04:13;;;;;;;6.97;2.97;;;6.80;86.20;;;;;;5094515;28;20054;-82
2021/12/07 13:06:49;;;;;;;7.32;2.80;;;6.80;86.10;;;;;;5094886;28;20032;-82
2021/12/07 13:09:18;;;;;;;8.80;2.47;;;6.80;86.10;;;;;;5094855;28;20547;-82
2021/12/07 13:11:51;;;;;;;5.07;1.92;;;6.80;86.30;;;;;;5094693;28;20016;-82
2021/12/07 13:14:19;;;;;;;5.95;2.15;;;6.70;86.70;;;;;;5095960;28;20069;-81
2021/12/07 13:16:49;;;;;;;8.68;2.80;;;6.70;86.60;;;;;;5095044;28;20044;-82
2021/12/07 13:19:15;;;;;;;5.88;2.67;;;6.70;86.50;;;;;;5093923;28;20031;-82
2021/12/07 13:21:45;;;;;;;10.98;2.63;;;6.70;86.30;;;;;;5094747;28;20383;-81
2021/12/07 13:24:20;;;;;;;5.22;2.22;;;6.70;86.30;;;;;;5095850;28;20121;-81
2021/12/07 13:26:52;;;;;;;6.32;2.35;;;6.70;86.10;;;;;;5093952;28;20027;-82
2021/12/07 13:29:20;;;;;;;4.65;2.13;;;6.70;86.00;;;;;;5093698;28;20032;-80
2021/12/07 13:31:57;;;;;;;4.43;1.90;;;6.70;86.50;;;;;;5097072;28;20048;-82
2021/12/07 13:34:29;;;;;;;6.32;2.28;;;6.70;87.20;;;;;;5098358;28;20472;-82
2021/12/07 13:37:01;;;;;;;5.10;1.92;;;6.60;86.80;;;;;;5097815;28;20020;-81
2021/12/07 13:39:35;;;;;;;5.82;1.98;;;6.60;86.80;;;;;;5098642;28;20021;-82
2021/12/07 13:42:11;;;;;;;6.95;2.45;;;6.50;87.50;;;;;;5099938;28;20031;-82
2021/12/07 13:44:41;;;;;;;6.88;2.20;;;6.50;87.70;;;;;;5100708;28;20039;-82
2021/12/07 13:47:11;;;;;;;4.15;2.20;;;6.50;88.30;;;;;;5097642;28;20073;-82
2021/12/07 13:49:37;;;;;;;6.80;2.20;;;6.50;88.30;;;;;;5099256;28;20059;-82
2021/12/07 13:52:10;;;;;;;4.43;2.10;;;6.40;88.10;;;;;;5100366;28;20064;-82
2021/12/07 13:54:41;;;;;;;7.25;2.53;;;6.40;88.00;;;;;;5099594;28;20434;-82
2021/12/07 13:57:11;;;;;;;3.42;1.98;;;6.40;89.60;;;;;;5097935;28;20040;-82
2021/12/07 13:59:36;;;;;;;7.60;2.28;;;6.40;89.40;;;;;;5098045;28;20463;-82
2021/12/07 14:02:02;;;;;;;7.88;2.40;;;6.30;89.20;;;;;;5098480;28;20023;-82
2021/12/07 14:04:29;;;;;;;6.13;2.05;;;6.30;89.20;;;;;;5098134;28;20024;-82
2021/12/07 14:06:55;;;;;;;4.40;1.88;;;6.30;89.20;;;;;;5097955;28;20024;-80
2021/12/07 14:09:21;;;;;;;4.07;1.83;;;6.20;89.80;;;;;;5097554;28;20022;-81
2021/12/07 14:11:56;;;;;;;4.68;1.95;;;6.20;90.10;;;;;;5099206;28;20055;-82
2021/12/07 14:14:23;;;;;;;5.28;2.40;;;6.20;90.00;;;;;;5098423;28;20070;-82
2021/12/07 14:16:49;;;;;;;4.13;1.80;;;6.20;89.80;;;;;;5099827;28;20050;-81
2021/12/07 14:19:16;;;;;;;6.35;2.17;;;6.20;90.50;;;;;;5098140;28;20462;-82
2021/12/07 14:21:43;;;;;;;6.95;2.20;;;6.10;90.30;;;;;;5097601;28;20024;-82
2021/12/07 14:24:15;;;;;;;6.88;2.50;;;6.10;90.70;;;;;;5099085;28;20035;-82
2021/12/07 14:26:42;;;;;;;6.13;2.05;;;6.10;90.80;;;;;;5098712;28;20059;-83
2021/12/07 14:29:16;;;;;;;7.65;2.45;;;6.00;91.00;;;;;;5098349;28;20411;-82
2021/12/07 14:31:51;;;;;;;7.22;2.42;;;6.00;90.90;;;;;;5097564;28;20024;-82
2021/12/07 14:34:26;;;;;;;8.25;2.63;;;6.00;90.70;;;;;;5098806;28;20055;-82
2021/12/07 14:37:03;;;;;;;8.93;2.58;;;6.00;90.60;;;;;;5098660;28;20077;-82
2021/12/07 14:39:35;;;;;;;7.25;2.50;;;5.90;90.50;;;;;;5099006;28;20028;-82
2021/12/07 14:42:05;;;;;;;5.15;1.90;;;5.90;90.40;;;;;;5097536;28;20086;-81
2021/12/07 14:44:45;;;;;;;6.68;2.28;;;5.90;90.60;;;;;;5097022;28;20130;-82
2021/12/07 14:47:12;;;;;;;4.57;1.98;;;5.80;90.80;;;;;;5096435;28;20024;-82
2021/12/07 14:49:43;;;;;;;7.28;2.40;;;5.80;91.10;;;;;;5097120;28;20054;-82
2021/12/07 14:52:24;;;;;;;7.30;2.60;;;5.80;91.40;;;;;;5097303;28;20058;-82
2021/12/07 14:54:50;;;;;;;4.65;2.22;;;5.70;91.50;;;;;;5097172;28;20016;-81
2021/12/07 14:57:20;;;;;;;6.57;1.90;;;5.70;91.70;;;;;;5096737;28;20119;-83